createdAt,value
2019-05-18T00:01:45.171Z,17.03
2019-05-18T00:04:14.727Z,17.02
2019-05-18T00:06:44.249Z,17.03
2019-05-18T00:09:13.897Z,17.05
2019-05-18T00:11:43.455Z,17.09
2019-05-18T00:14:13.048Z,17.13
2019-05-18T00:16:43.958Z,17.18
2019-05-18T00:19:13.598Z,17.24
2019-05-18T00:21:43.570Z,17.30
2019-05-18T00:24:13.325Z,17.35
2019-05-18T00:26:43.024Z,17.37
2019-05-18T00:29:12.615Z,17.40
2019-05-18T00:31:42.191Z,17.43
2019-05-18T00:34:14.268Z,17.46
2019-05-18T00:36:44.336Z,17.44
2019-05-18T00:39:14.024Z,17.40
2019-05-18T00:41:46.213Z,17.39
2019-05-18T00:44:28.224Z,17.41
2019-05-18T00:46:58.561Z,17.43
2019-05-18T00:49:29.460Z,17.46
2019-05-18T00:52:02.986Z,17.52
2019-05-18T00:54:33.699Z,17.56
2019-05-18T00:57:08.357Z,17.58
2019-05-18T00:59:39.697Z,17.62
2019-05-18T01:02:10.584Z,17.65
2019-05-18T01:04:40.136Z,17.65
2019-05-18T01:07:09.686Z,17.68
2019-05-18T01:09:40.653Z,17.69
2019-05-18T01:12:13.909Z,17.70
2019-05-18T01:14:43.581Z,17.69
2019-05-18T01:17:14.716Z,17.69
2019-05-18T01:19:45.362Z,17.69
2019-05-18T01:22:15.025Z,17.69
2019-05-18T01:24:44.996Z,17.68
2019-05-18T01:27:16.658Z,17.68
2019-05-18T01:29:47.041Z,17.68
2019-05-18T01:32:16.635Z,17.70
2019-05-18T01:34:46.230Z,17.70
2019-05-18T01:37:15.884Z,17.66
2019-05-18T01:39:45.417Z,17.65
2019-05-18T01:42:16.935Z,17.67
2019-05-18T01:44:46.433Z,17.66
2019-05-18T01:47:18.070Z,17.66
2019-05-18T01:49:48.650Z,17.64
2019-05-18T01:52:18.144Z,17.59
2019-05-18T01:54:48.006Z,17.57
2019-05-18T01:57:17.527Z,17.56
2019-05-18T01:59:47.055Z,17.55
2019-05-18T02:02:18.213Z,17.53
2019-05-18T02:04:49.994Z,17.54
2019-05-18T02:07:20.449Z,17.52
2019-05-18T02:09:50.101Z,17.53
2019-05-18T02:12:19.698Z,17.53
2019-05-18T02:14:49.248Z,17.55
2019-05-18T02:17:18.826Z,17.54
2019-05-18T02:19:48.382Z,17.54
2019-05-18T02:22:18.707Z,17.56
2019-05-18T02:24:48.372Z,17.58
2019-05-18T02:27:18.278Z,17.58
2019-05-18T02:29:50.375Z,17.59
2019-05-18T02:32:20.220Z,17.57
2019-05-18T02:34:50.039Z,17.57
2019-05-18T02:37:19.613Z,17.56
2019-05-18T02:39:51.404Z,17.56
2019-05-18T02:42:24.915Z,17.54
2019-05-18T02:44:54.684Z,17.52
2019-05-18T02:47:25.108Z,17.47
2019-05-18T02:49:54.684Z,17.45
2019-05-18T02:52:24.374Z,17.44
2019-05-18T02:54:54.799Z,17.39
2019-05-18T02:57:24.567Z,17.35
2019-05-18T02:59:54.373Z,17.36
2019-05-18T03:02:25.450Z,17.34
2019-05-18T03:04:55.473Z,17.34
2019-05-18T03:07:33.385Z,17.31
2019-05-18T03:10:03.031Z,17.30
2019-05-18T03:12:32.985Z,17.32
2019-05-18T03:15:06.873Z,17.31
2019-05-18T03:17:36.769Z,17.30
2019-05-18T03:20:07.766Z,17.31
2019-05-18T03:22:37.568Z,17.32
2019-05-18T03:25:07.587Z,17.32
2019-05-18T03:27:38.325Z,17.32
2019-05-18T03:30:08.229Z,17.27
2019-05-18T03:32:39.030Z,17.22
2019-05-18T03:35:12.784Z,17.23
2019-05-18T03:37:43.135Z,17.22
2019-05-18T03:40:13.264Z,17.22
2019-05-18T03:42:42.983Z,17.22
2019-05-18T03:45:13.670Z,17.23
2019-05-18T03:47:47.456Z,17.24
2019-05-18T03:50:17.425Z,17.25
2019-05-18T03:52:47.149Z,17.26
2019-05-18T03:55:18.229Z,17.27
2019-05-18T03:57:50.545Z,17.25
2019-05-18T04:00:21.018Z,17.21
2019-05-18T04:02:50.711Z,17.17
2019-05-18T04:05:20.363Z,17.16
2019-05-18T04:07:50.105Z,17.10
2019-05-18T04:10:26.865Z,17.05
2019-05-18T04:12:56.593Z,17.01
2019-05-18T04:15:26.405Z,16.95
2019-05-18T04:17:56.241Z,16.87
2019-05-18T04:20:27.173Z,16.80
2019-05-18T04:22:56.870Z,16.76
2019-05-18T04:25:27.210Z,16.69
2019-05-18T04:27:56.984Z,16.65
2019-05-18T04:30:26.610Z,16.61
2019-05-18T04:32:57.224Z,16.52
2019-05-18T04:35:31.044Z,16.44
2019-05-18T04:38:00.700Z,16.37
2019-05-18T04:40:30.379Z,16.33
2019-05-18T04:43:02.901Z,16.27
2019-05-18T04:45:32.476Z,16.21
2019-05-18T04:48:02.060Z,16.15
2019-05-18T04:50:35.306Z,16.11
2019-05-18T04:53:05.527Z,16.03
2019-05-18T04:55:35.660Z,15.96
2019-05-18T04:58:09.180Z,15.92
2019-05-18T05:00:39.269Z,15.87
2019-05-18T05:03:09.727Z,15.87
2019-05-18T05:05:40.191Z,15.86
2019-05-18T05:08:12.593Z,15.90
2019-05-18T05:10:42.261Z,15.89
2019-05-18T05:13:11.882Z,15.89
2019-05-18T05:15:41.524Z,15.91
2019-05-18T05:18:14.001Z,15.97
2019-05-18T05:20:43.556Z,16.02
2019-05-18T05:23:13.263Z,16.06
2019-05-18T05:25:43.003Z,16.09
2019-05-18T05:28:13.043Z,16.16
2019-05-18T05:30:42.829Z,16.20
2019-05-18T05:33:14.850Z,16.21
2019-05-18T05:35:44.356Z,16.28
2019-05-18T05:38:13.904Z,16.31
2019-05-18T05:40:43.604Z,16.35
2019-05-18T05:43:13.152Z,16.39
2019-05-18T05:45:42.737Z,16.46
2019-05-18T05:48:12.602Z,16.55
2019-05-18T05:50:42.445Z,16.60
2019-05-18T05:53:15.865Z,16.67
2019-05-18T05:55:45.374Z,16.73
2019-05-18T05:58:15.503Z,16.78
2019-05-18T06:00:45.176Z,16.81
2019-05-18T06:03:14.989Z,16.84
2019-05-18T06:05:46.308Z,16.90
2019-05-18T06:08:15.901Z,16.94
2019-05-18T06:10:46.400Z,16.98
2019-05-18T06:13:16.940Z,16.96
2019-05-18T06:15:46.734Z,16.96
2019-05-18T06:18:16.534Z,16.96
2019-05-18T06:20:51.607Z,16.97
2019-05-18T06:23:17.270Z,16.99
2019-05-18T06:25:46.642Z,17.02
2019-05-18T06:28:16.177Z,17.03
2019-05-18T06:30:45.735Z,17.06
2019-05-18T06:33:15.321Z,17.10
2019-05-18T06:35:44.760Z,17.13
2019-05-18T06:38:14.871Z,17.15
2019-05-18T06:40:44.493Z,17.19
2019-05-18T06:43:16.064Z,17.25
2019-05-18T06:45:45.675Z,17.30
2019-05-18T06:48:15.127Z,17.32
2019-05-18T06:50:44.858Z,17.30
2019-05-18T06:53:14.444Z,17.30
2019-05-18T06:55:43.977Z,17.34
2019-05-18T06:58:15.471Z,17.40
2019-05-18T07:00:45.846Z,17.44
2019-05-18T07:03:18.281Z,17.48
2019-05-18T07:06:43.589Z,17.56
2019-05-18T07:09:14.462Z,17.68
2019-05-18T07:12:26.792Z,17.83
2019-05-18T07:20:21.056Z,17.99
2019-05-18T07:22:50.617Z,18.05
2019-05-18T07:25:20.064Z,18.13
2019-05-18T07:27:49.548Z,18.22
2019-05-18T07:30:31.216Z,18.28
2019-05-18T07:33:00.710Z,18.37
2019-05-18T07:35:30.247Z,18.50
2019-05-18T07:38:02.649Z,18.60
2019-05-18T07:40:32.194Z,18.69
2019-05-18T07:43:04.659Z,18.77
2019-05-18T07:45:35.542Z,18.86
2019-05-18T07:48:05.089Z,18.94
2019-05-18T07:50:34.622Z,19.03
2019-05-18T07:53:04.586Z,19.14
2019-05-18T07:55:34.169Z,19.22
2019-05-18T07:58:06.088Z,19.34
2019-05-18T08:00:35.576Z,19.44
2019-05-18T08:03:05.079Z,19.57
2019-05-18T08:05:34.687Z,19.67
2019-05-18T08:08:04.222Z,19.76
2019-05-18T08:10:38.444Z,19.90
2019-05-18T08:13:09.256Z,20.03
2019-05-18T08:15:39.267Z,20.14
2019-05-18T08:18:10.377Z,20.27
2019-05-18T08:20:40.511Z,20.37
2019-05-18T08:23:10.131Z,20.42
2019-05-18T08:25:42.702Z,20.44
2019-05-18T08:28:14.064Z,20.46
2019-05-18T08:30:44.027Z,20.40
2019-05-18T08:33:13.897Z,20.30
2019-05-18T08:35:44.208Z,20.24
2019-05-18T08:38:13.895Z,20.21
2019-05-18T08:40:43.727Z,20.17
2019-05-18T08:43:13.795Z,20.13
2019-05-18T08:45:44.493Z,20.13
2019-05-18T08:48:14.941Z,20.15
2019-05-18T08:50:46.900Z,20.22
2019-05-18T08:53:16.769Z,20.31
2019-05-18T08:55:51.225Z,20.42
2019-05-18T08:58:22.617Z,20.52
2019-05-18T09:00:53.304Z,20.59
2019-05-18T09:03:24.182Z,20.68
2019-05-18T09:05:53.993Z,20.67
2019-05-18T09:08:23.665Z,20.71
2019-05-18T09:10:53.751Z,20.79
2019-05-18T09:13:23.417Z,20.85
2019-05-18T09:15:54.955Z,20.90
2019-05-18T09:18:24.762Z,20.98
2019-05-18T09:21:03.773Z,21.11
2019-05-18T09:23:34.890Z,21.22
2019-05-18T09:26:04.868Z,21.29
2019-05-18T09:28:45.383Z,21.28
2019-05-18T09:31:18.996Z,21.32
2019-05-18T09:34:00.099Z,21.40
2019-05-18T09:36:29.871Z,21.30
2019-05-18T09:39:00.778Z,21.42
2019-05-18T09:41:31.793Z,21.38
2019-05-18T09:46:40.943Z,21.25
2019-05-18T09:49:13.964Z,21.21
2019-05-18T09:52:00.392Z,21.33
2019-05-18T09:54:31.065Z,21.45
2019-05-18T09:57:03.856Z,21.68
2019-05-18T09:59:45.548Z,21.71
2019-05-18T10:02:15.157Z,21.80
2019-05-18T10:04:45.340Z,21.96
2019-05-18T10:07:15.133Z,22.06
2019-05-18T10:09:46.341Z,22.18
2019-05-18T10:12:16.401Z,22.28
2019-05-18T10:14:46.304Z,22.51
2019-05-18T10:17:16.014Z,22.65
2019-05-18T10:19:45.603Z,22.51
2019-05-18T10:22:15.857Z,22.21
2019-05-18T10:24:45.607Z,22.03
2019-05-18T10:27:16.135Z,22.06
2019-05-18T10:29:46.742Z,22.09
2019-05-18T10:32:18.779Z,22.46
2019-05-18T10:52:43.182Z,22.50
2019-05-18T11:15:19.341Z,23.88
2019-05-18T11:39:11.036Z,23.10
2019-05-18T11:41:44.429Z,22.87
2019-05-18T11:44:19.956Z,22.76
2019-05-18T11:47:27.181Z,22.79
2019-05-18T11:50:02.575Z,22.55
2019-05-18T11:52:33.716Z,22.45
2019-05-18T11:55:03.317Z,22.20
2019-05-18T11:57:32.754Z,21.96
2019-05-18T12:00:09.173Z,21.95
2019-05-18T12:02:40.606Z,21.99
2019-05-18T12:05:12.916Z,21.77
2019-05-18T12:07:42.578Z,21.69
2019-05-18T12:10:12.950Z,21.76
2019-05-18T12:12:42.382Z,21.80
2019-05-18T12:15:13.440Z,21.75
2019-05-18T12:17:42.893Z,21.84
2019-05-18T12:20:13.795Z,21.84
2019-05-18T12:22:44.478Z,21.90
2019-05-18T12:25:14.927Z,21.78
2019-05-18T12:27:44.702Z,21.74
2019-05-18T12:30:17.771Z,21.49
2019-05-18T12:32:47.170Z,21.25
2019-05-18T12:35:17.007Z,21.09
2019-05-18T12:37:46.405Z,21.05
2019-05-18T12:40:18.819Z,21.13
2019-05-18T12:42:49.075Z,21.19
2019-05-18T12:45:20.180Z,21.34
2019-05-18T12:47:49.670Z,21.38
2019-05-18T12:50:21.317Z,21.55
2019-05-18T12:52:50.935Z,21.71
2019-05-18T12:55:21.035Z,21.84
2019-05-18T12:57:50.488Z,21.91
2019-05-18T13:00:21.704Z,22.01
2019-05-18T13:02:51.339Z,22.14
2019-05-18T13:05:20.893Z,22.26
2019-05-18T13:07:53.391Z,22.31
2019-05-18T13:10:26.535Z,22.11
2019-05-18T13:12:56.095Z,22.18
2019-05-18T13:15:25.788Z,22.29
2019-05-18T13:17:55.200Z,22.21
2019-05-18T13:20:24.889Z,22.20
2019-05-18T13:22:54.404Z,22.18
2019-05-18T13:25:23.940Z,22.42
2019-05-18T13:27:53.543Z,22.51
2019-05-18T13:30:23.155Z,22.47
2019-05-18T13:32:52.655Z,22.37
2019-05-18T13:35:22.532Z,22.37
2019-05-18T13:37:51.870Z,22.52
2019-05-18T13:40:23.248Z,22.68
2019-05-18T13:42:52.637Z,22.90
2019-05-18T13:45:22.250Z,23.00
2019-05-18T13:47:51.710Z,23.00
2019-05-18T13:50:21.303Z,22.97
2019-05-18T13:52:50.759Z,22.91
2019-05-18T13:55:20.491Z,22.71
2019-05-18T13:57:50.000Z,22.67
2019-05-18T14:00:20.471Z,22.74
2019-05-18T14:02:50.135Z,22.69
2019-05-18T14:05:19.643Z,22.59
2019-05-18T14:07:50.124Z,22.68
2019-05-18T14:10:20.544Z,22.58
2019-05-18T14:12:49.972Z,22.52
2019-05-18T14:15:22.686Z,22.22
2019-05-18T14:17:50.910Z,22.12
2019-05-18T14:20:36.234Z,22.22
2019-05-18T14:23:05.767Z,22.27
2019-05-18T14:25:36.163Z,22.34
2019-05-18T14:28:09.108Z,22.20
2019-05-18T14:30:38.750Z,21.94
2019-05-18T14:33:11.840Z,21.79
2019-05-18T14:35:41.306Z,21.90
2019-05-18T14:38:11.777Z,21.74
2019-05-18T14:40:41.271Z,21.70
2019-05-18T14:43:10.717Z,21.57
2019-05-18T14:45:40.444Z,21.66
2019-05-18T14:48:15.125Z,21.77
2019-05-18T14:50:44.760Z,22.10
2019-05-18T14:53:14.345Z,22.44
2019-05-18T14:55:43.896Z,22.79
2019-05-18T14:58:13.359Z,23.53
2019-05-18T15:00:43.231Z,23.82
2019-05-18T15:03:12.813Z,24.38
2019-05-18T15:05:42.305Z,24.89
2019-05-18T15:08:11.881Z,25.48
2019-05-18T15:10:41.563Z,26.12
2019-05-18T15:13:11.142Z,26.39
2019-05-18T15:15:40.703Z,26.60
2019-05-18T15:18:10.195Z,26.69
2019-05-18T15:20:39.685Z,26.88
2019-05-18T15:23:09.204Z,26.73
2019-05-18T15:25:50.080Z,26.30
2019-05-18T15:28:09.929Z,25.93
2019-05-18T15:30:39.422Z,25.36
2019-05-18T15:33:08.896Z,25.01
2019-05-18T15:35:40.177Z,24.47
2019-05-18T15:38:09.706Z,23.99
2019-05-18T15:40:39.134Z,23.69
2019-05-18T15:43:08.578Z,23.48
2019-05-18T15:45:37.962Z,23.44
2019-05-18T15:48:07.643Z,23.53
2019-05-18T15:50:37.056Z,23.42
2019-05-18T15:53:06.493Z,23.21
2019-05-18T15:55:36.197Z,22.96
2019-05-18T15:58:05.709Z,22.77
2019-05-18T16:00:35.200Z,22.62
2019-05-18T16:03:04.603Z,22.52
2019-05-18T16:05:34.191Z,22.37
2019-05-18T16:08:08.381Z,22.16
2019-05-18T16:10:38.052Z,21.97
2019-05-18T16:13:07.402Z,21.89
2019-05-18T16:15:36.953Z,21.73
2019-05-18T16:18:06.436Z,21.58
2019-05-18T16:20:35.852Z,21.42
2019-05-18T16:23:05.277Z,21.30
2019-05-18T16:25:34.736Z,21.21
2019-05-18T16:28:04.304Z,21.23
2019-05-18T16:30:33.792Z,21.17
2019-05-18T16:33:03.255Z,21.09
2019-05-18T16:35:32.634Z,21.05
2019-05-18T16:38:02.229Z,21.00
2019-05-18T16:40:31.634Z,20.98
2019-05-18T16:43:03.496Z,20.95
2019-05-18T16:45:33.980Z,20.94
2019-05-18T16:48:06.788Z,20.96
2019-05-18T16:50:36.182Z,20.94
2019-05-18T16:53:05.790Z,20.94
2019-05-18T16:55:35.327Z,20.86
2019-05-18T16:58:04.665Z,20.91
2019-05-18T17:00:34.029Z,20.92
2019-05-18T17:03:03.376Z,20.96
2019-05-18T17:05:32.734Z,20.97
2019-05-18T17:08:02.113Z,20.96
2019-05-18T17:10:31.577Z,20.94
2019-05-18T17:13:00.893Z,20.89
2019-05-18T17:15:30.358Z,20.83
2019-05-18T17:17:59.666Z,20.85
2019-05-18T17:20:29.069Z,20.82
2019-05-18T17:23:01.003Z,20.80
2019-05-18T17:25:30.353Z,20.74
2019-05-18T17:27:59.739Z,20.62
2019-05-18T17:30:31.196Z,20.58
2019-05-18T17:33:00.621Z,20.58
2019-05-18T17:35:30.103Z,20.58
2019-05-18T17:37:59.847Z,20.54
2019-05-18T17:40:30.921Z,20.50
2019-05-18T17:43:00.578Z,20.42
2019-05-18T17:45:30.202Z,20.30
2019-05-18T17:47:59.599Z,20.23
2019-05-18T17:50:29.992Z,20.17
2019-05-18T17:52:59.310Z,20.09
2019-05-18T17:55:28.673Z,20.02
2019-05-18T17:57:58.057Z,19.96
2019-05-18T18:00:27.406Z,19.99
2019-05-18T18:02:56.685Z,20.00
2019-05-18T18:05:28.842Z,20.00
2019-05-18T18:07:58.138Z,20.08
2019-05-18T18:10:27.467Z,20.16
2019-05-18T18:12:56.781Z,20.27
2019-05-18T18:15:26.183Z,20.41
2019-05-18T18:17:55.554Z,20.54
2019-05-18T18:20:26.410Z,20.44
2019-05-18T18:22:56.286Z,21.02
2019-05-18T18:25:25.654Z,21.83
2019-05-18T18:27:55.138Z,22.48
2019-05-18T18:30:24.625Z,22.76
2019-05-18T18:32:56.395Z,23.34
2019-05-18T18:35:25.805Z,24.00
2019-05-18T18:37:55.198Z,24.77
2019-05-18T18:40:24.536Z,25.21
2019-05-18T18:42:53.976Z,25.15
2019-05-18T18:45:23.446Z,24.80
2019-05-18T18:47:53.041Z,24.38
2019-05-18T18:50:22.392Z,23.99
2019-05-18T18:52:51.886Z,23.71
2019-05-18T18:55:21.303Z,23.46
2019-05-18T18:57:50.734Z,23.32
2019-05-18T19:00:20.924Z,22.98
2019-05-18T19:02:50.386Z,22.61
2019-05-18T19:05:19.946Z,22.29
2019-05-18T19:07:49.336Z,22.00
2019-05-18T19:10:18.776Z,21.76
2019-05-18T19:12:48.209Z,21.49
2019-05-18T19:15:18.323Z,21.30
2019-05-18T19:17:47.747Z,21.16
2019-05-18T19:20:18.136Z,21.02
2019-05-18T19:22:47.535Z,20.88
2019-05-18T19:25:17.177Z,20.71
2019-05-18T19:27:54.430Z,20.58
2019-05-18T19:30:17.977Z,20.40
2019-05-18T19:32:47.505Z,20.24
2019-05-18T19:35:16.897Z,20.08
2019-05-18T19:37:46.274Z,19.98
2019-05-18T19:40:16.626Z,19.90
2019-05-18T19:42:45.973Z,19.83
2019-05-18T19:45:15.773Z,19.77
2019-05-18T19:47:45.149Z,19.69
2019-05-18T19:50:14.835Z,19.62
2019-05-18T19:52:44.240Z,19.56
2019-05-18T19:55:17.251Z,19.48
2019-05-18T19:57:46.648Z,19.39
2019-05-18T20:00:18.846Z,19.32
2019-05-18T20:02:48.237Z,19.27
2019-05-18T20:05:17.655Z,19.20
2019-05-18T20:07:47.073Z,19.14
2019-05-18T20:10:16.669Z,19.09
2019-05-18T20:12:46.039Z,19.07
2019-05-18T20:15:17.852Z,19.00
2019-05-18T20:17:47.261Z,18.95
2019-05-18T20:20:16.980Z,18.87
2019-05-18T20:22:46.425Z,18.77
2019-05-18T20:25:17.196Z,18.71
2019-05-18T20:27:46.528Z,18.68
2019-05-18T20:30:16.086Z,18.65
2019-05-18T20:32:45.499Z,18.63
2019-05-18T20:35:18.391Z,18.64
2019-05-18T20:37:47.842Z,18.62
2019-05-18T20:40:17.345Z,18.56
2019-05-18T20:42:46.780Z,18.53
2019-05-18T20:45:16.255Z,18.42
2019-05-18T20:47:45.838Z,18.36
2019-05-18T20:50:16.307Z,18.30
2019-05-18T20:52:45.686Z,18.24
2019-05-18T20:55:15.602Z,18.17
2019-05-18T20:57:45.099Z,18.12
2019-05-18T21:00:15.875Z,18.07
2019-05-18T21:02:47.457Z,18.06
2019-05-18T21:05:16.939Z,18.02
2019-05-18T21:07:46.434Z,17.97
2019-05-18T21:10:16.107Z,17.93
2019-05-18T21:12:45.905Z,17.90
2019-05-18T21:15:15.860Z,17.86
2019-05-18T21:17:46.728Z,17.87
2019-05-18T21:20:16.128Z,17.89
2019-05-18T21:22:45.584Z,17.91
2019-05-18T21:25:15.159Z,17.92
2019-05-18T21:27:44.571Z,17.91
2019-05-18T21:30:14.581Z,17.87
2019-05-18T21:32:43.950Z,17.82
2019-05-18T21:35:13.305Z,17.82
2019-05-18T21:37:42.707Z,17.80
2019-05-18T21:40:12.266Z,17.73
2019-05-18T21:42:41.779Z,17.67
2019-05-18T21:45:11.546Z,17.63
2019-05-18T21:47:41.157Z,17.62
2019-05-18T21:50:10.510Z,17.60
2019-05-18T21:52:42.011Z,17.62
2019-05-18T21:55:11.029Z,17.62
2019-05-18T21:57:40.501Z,17.62
2019-05-18T22:00:10.150Z,17.63
2019-05-18T22:02:39.562Z,17.66
2019-05-18T22:05:09.022Z,17.74
2019-05-18T22:07:38.623Z,17.78
2019-05-18T22:10:24.442Z,17.82
2019-05-18T22:12:40.524Z,17.86
2019-05-18T22:15:10.619Z,17.87
2019-05-18T22:17:57.561Z,17.90
2019-05-18T22:20:27.007Z,17.95
2019-05-18T22:22:56.339Z,17.82
2019-05-18T22:25:25.706Z,17.87
2019-05-18T22:27:55.097Z,17.89
2019-05-18T22:30:24.586Z,17.91
2019-05-18T22:32:54.096Z,17.95
2019-05-18T22:35:24.515Z,17.96
2019-05-18T22:37:53.942Z,17.99
2019-05-18T22:40:23.389Z,18.00
2019-05-18T22:42:52.825Z,18.01
2019-05-18T22:45:22.323Z,18.04
2019-05-18T22:47:51.714Z,18.05
2019-05-18T22:50:21.128Z,18.07
2019-05-18T22:52:50.599Z,18.06
2019-05-18T22:55:19.968Z,18.05
2019-05-18T22:57:49.451Z,18.07
2019-05-18T23:00:19.025Z,18.05
2019-05-18T23:02:48.485Z,18.01
2019-05-18T23:05:18.088Z,17.96
2019-05-18T23:07:47.504Z,17.85
2019-05-18T23:10:17.029Z,17.73
2019-05-18T23:12:46.423Z,17.63
2019-05-18T23:15:16.723Z,17.53
2019-05-18T23:17:46.188Z,17.42
2019-05-18T23:20:15.630Z,17.32
2019-05-18T23:22:45.185Z,17.23
2019-05-18T23:25:15.072Z,17.14
2019-05-18T23:27:44.479Z,17.05
2019-05-18T23:30:15.382Z,16.98
2019-05-18T23:32:44.857Z,16.93
2019-05-18T23:35:14.471Z,16.91
2019-05-18T23:37:44.063Z,16.89
2019-05-18T23:40:14.518Z,16.86
2019-05-18T23:42:44.154Z,16.83
2019-05-18T23:45:15.399Z,16.83
2019-05-18T23:47:44.885Z,16.83
2019-05-18T23:50:14.598Z,16.86
2019-05-18T23:52:44.139Z,16.88
2019-05-18T23:55:14.092Z,16.93
2019-05-18T23:57:43.646Z,16.97
